createdAt,value
2023-02-13T00:01:38.926Z,45.55
2023-02-13T00:04:08.208Z,36.05
2023-02-13T00:06:37.324Z,42.10
2023-02-13T00:09:07.339Z,43.38
2023-02-13T00:11:36.549Z,42.20
2023-02-13T00:14:06.024Z,40.38
2023-02-13T00:16:35.823Z,40.35
2023-02-13T00:19:05.367Z,32.45
2023-02-13T00:21:34.413Z,43.85
2023-02-13T00:24:03.651Z,44.72
2023-02-13T00:26:32.797Z,42.80
2023-02-13T00:29:01.822Z,36.00
2023-02-13T00:31:31.252Z,34.47
2023-02-13T00:34:00.942Z,34.45
2023-02-13T00:36:30.079Z,46.85
2023-02-13T00:38:59.644Z,55.88
2023-02-13T00:41:28.994Z,52.75
2023-02-13T00:43:58.215Z,55.28
2023-02-13T00:46:27.176Z,49.60
2023-02-13T00:48:57.245Z,49.25
2023-02-13T00:51:26.200Z,42.95
2023-02-13T00:53:55.859Z,41.28
2023-02-13T00:56:25.046Z,60.58
2023-02-13T00:58:54.583Z,56.00
2023-02-13T01:01:26.822Z,45.03
2023-02-13T01:03:56.672Z,74.93
2023-02-13T01:06:27.806Z,66.03
2023-02-13T01:08:58.324Z,94.70
2023-02-13T01:11:28.705Z,70.57
2023-02-13T01:13:59.387Z,96.68
2023-02-13T01:16:31.662Z,65.35
2023-02-13T01:19:02.915Z,79.40
2023-02-13T01:21:33.406Z,67.85
2023-02-13T01:24:05.728Z,75.93
2023-02-13T01:26:36.940Z,84.05
2023-02-13T01:29:06.665Z,87.57
2023-02-13T01:31:35.864Z,70.30
2023-02-13T01:34:05.666Z,58.38
2023-02-13T01:36:34.855Z,85.40
2023-02-13T01:39:04.210Z,64.18
2023-02-13T01:41:33.603Z,50.08
2023-02-13T01:44:03.458Z,37.00
2023-02-13T01:46:43.771Z,43.08
2023-02-13T01:49:22.074Z,47.80
2023-02-13T01:51:56.343Z,94.32
2023-02-13T01:54:31.912Z,74.57
2023-02-13T01:57:18.169Z,60.67
2023-02-13T02:00:00.520Z,54.60
2023-02-13T02:02:35.300Z,68.30
2023-02-13T02:05:07.570Z,51.58
2023-02-13T02:07:39.677Z,62.50
2023-02-13T02:10:15.195Z,57.17
2023-02-13T02:12:54.921Z,44.10
2023-02-13T02:15:24.711Z,60.65
2023-02-13T02:17:54.848Z,53.80
2023-02-13T02:20:47.816Z,60.40
2023-02-13T02:23:29.976Z,56.70
2023-02-13T02:26:21.081Z,64.63
2023-02-13T02:29:16.016Z,79.25
2023-02-13T02:31:51.400Z,51.42
2023-02-13T02:34:47.820Z,50.80
2023-02-13T02:38:16.360Z,60.20
2023-02-13T02:41:00.015Z,47.25
2023-02-13T02:43:48.341Z,63.53
2023-02-13T02:46:32.273Z,35.25
2023-02-13T02:49:35.342Z,44.92
2023-02-13T02:52:16.459Z,46.40
2023-02-13T02:55:09.136Z,69.97
2023-02-13T02:58:49.318Z,79.72
2023-02-13T03:01:43.243Z,69.43
2023-02-13T03:04:58.154Z,65.68
2023-02-13T03:07:28.150Z,87.60
2023-02-13T03:10:25.707Z,72.32
2023-02-13T03:13:35.972Z,52.58
2023-02-13T03:16:23.990Z,85.47
2023-02-13T03:19:15.767Z,65.10
2023-02-13T03:22:24.595Z,79.93
2023-02-13T03:25:12.140Z,75.82
2023-02-13T03:28:10.469Z,94.15
2023-02-13T03:30:54.009Z,78.47
2023-02-13T03:33:50.876Z,106.28
2023-02-13T03:37:04.839Z,78.50
2023-02-13T03:40:04.732Z,174.38
2023-02-13T03:42:45.210Z,107.43
2023-02-13T03:45:38.961Z,77.63
2023-02-13T03:48:31.094Z,107.85
2023-02-13T03:51:04.305Z,69.93
2023-02-13T03:53:36.964Z,49.53
2023-02-13T03:56:26.779Z,72.70
2023-02-13T03:59:18.089Z,82.43
2023-02-13T04:01:59.944Z,49.67
2023-02-13T04:04:55.488Z,29.92
2023-02-13T04:07:33.910Z,56.33
2023-02-13T04:10:11.641Z,47.47
2023-02-13T04:13:00.657Z,39.83
2023-02-13T04:15:53.490Z,30.23
2023-02-13T04:18:30.429Z,43.22
2023-02-13T04:21:04.327Z,43.60
2023-02-13T04:23:34.733Z,76.65
2023-02-13T04:26:10.495Z,69.23
2023-02-13T04:28:40.234Z,47.58
2023-02-13T04:31:10.923Z,48.47
2023-02-13T04:33:40.359Z,48.25
2023-02-13T04:36:09.614Z,60.00
2023-02-13T04:38:39.040Z,101.25
2023-02-13T04:41:08.552Z,71.63
2023-02-13T04:43:38.328Z,59.67
2023-02-13T04:46:09.004Z,55.72
2023-02-13T04:48:38.938Z,63.53
2023-02-13T04:51:08.426Z,55.53
2023-02-13T04:53:37.818Z,41.83
2023-02-13T04:56:07.019Z,37.58
2023-02-13T04:58:36.380Z,55.88
2023-02-13T05:01:14.025Z,40.38
2023-02-13T05:03:43.592Z,49.55
2023-02-13T05:06:12.818Z,39.30
2023-02-13T05:08:42.170Z,39.85
2023-02-13T05:11:11.550Z,50.78
2023-02-13T05:13:40.925Z,53.88
2023-02-13T05:16:10.231Z,49.17
2023-02-13T05:18:39.113Z,50.00
2023-02-13T05:21:26.633Z,35.65
2023-02-13T05:23:55.744Z,47.42
2023-02-13T05:26:24.927Z,32.92
2023-02-13T05:29:12.526Z,38.33
2023-02-13T05:31:41.763Z,30.63
2023-02-13T05:34:10.881Z,20.88
2023-02-13T05:36:41.075Z,56.83
2023-02-13T05:39:10.398Z,36.83
2023-02-13T05:41:39.837Z,35.20
2023-02-13T05:44:08.911Z,24.33
2023-02-13T05:46:41.317Z,34.63
2023-02-13T05:49:16.619Z,29.23
2023-02-13T05:51:48.340Z,32.22
2023-02-13T05:54:18.005Z,34.83
2023-02-13T05:56:48.099Z,28.17
2023-02-13T05:59:18.614Z,32.72
2023-02-13T06:01:48.767Z,39.15
2023-02-13T06:04:18.922Z,31.00
2023-02-13T06:06:52.939Z,33.88
2023-02-13T06:09:23.267Z,25.67
2023-02-13T06:11:55.293Z,24.23
2023-02-13T06:14:26.096Z,12.70
2023-02-13T06:16:56.064Z,65.50
2023-02-13T06:19:27.028Z,37.47
2023-02-13T06:21:56.189Z,19.10
2023-02-13T06:24:27.379Z,52.30
2023-02-13T06:26:57.151Z,61.05
2023-02-13T06:29:29.404Z,16.70
2023-02-13T06:31:59.294Z,29.02
2023-02-13T06:34:32.753Z,32.45
2023-02-13T06:37:05.301Z,28.27
2023-02-13T06:39:39.110Z,24.83
2023-02-13T06:42:09.751Z,28.02
2023-02-13T06:44:42.293Z,29.67
2023-02-13T06:47:12.658Z,32.07
2023-02-13T06:49:43.944Z,25.83
2023-02-13T06:52:14.799Z,31.92
2023-02-13T06:54:48.397Z,45.80
2023-02-13T06:57:19.264Z,18.92
2023-02-13T06:59:50.078Z,40.63
2023-02-13T07:02:19.195Z,23.52
2023-02-13T07:04:48.379Z,15.18
2023-02-13T07:07:17.679Z,32.30
2023-02-13T07:09:46.522Z,23.40
2023-02-13T07:12:15.963Z,31.20
2023-02-13T07:14:44.729Z,41.80
2023-02-13T07:17:13.855Z,59.05
2023-02-13T07:19:43.009Z,20.15
2023-02-13T07:22:12.463Z,74.38
2023-02-13T07:24:42.449Z,33.40
2023-02-13T07:27:11.772Z,17.75
2023-02-13T07:29:40.948Z,27.38
2023-02-13T07:32:10.120Z,49.20
2023-02-13T07:34:44.463Z,28.77
2023-02-13T07:37:18.679Z,27.98
2023-02-13T07:39:48.302Z,22.27
2023-02-13T07:42:17.613Z,19.60
2023-02-13T07:44:46.951Z,27.23
2023-02-13T07:47:17.753Z,67.57
2023-02-13T07:49:48.048Z,66.10
2023-02-13T07:52:17.060Z,17.17
2023-02-13T07:54:50.538Z,97.80
2023-02-13T07:57:19.670Z,25.30
2023-02-13T07:59:48.814Z,16.08
2023-02-13T08:02:18.306Z,31.85
2023-02-13T08:04:49.982Z,16.40
2023-02-13T08:07:19.531Z,15.57
2023-02-13T08:10:08.321Z,21.40
2023-02-13T08:12:38.015Z,13.93
2023-02-13T08:15:07.587Z,19.40
2023-02-13T08:17:37.046Z,34.40
2023-02-13T08:20:10.385Z,111.45
2023-02-13T08:22:40.950Z,18.35
2023-02-13T08:25:10.297Z,33.63
2023-02-13T08:27:40.236Z,29.48
2023-02-13T08:30:11.198Z,21.33
2023-02-13T08:32:53.509Z,28.65
2023-02-13T08:35:27.696Z,20.75
2023-02-13T08:37:57.231Z,17.45
2023-02-13T08:40:26.374Z,23.88
2023-02-13T08:43:02.372Z,17.88
2023-02-13T08:45:32.610Z,31.80
2023-02-13T08:48:04.985Z,28.25
2023-02-13T08:50:36.160Z,23.30
2023-02-13T08:53:07.738Z,17.73
2023-02-13T08:55:36.955Z,30.00
2023-02-13T08:58:06.575Z,10.73
2023-02-13T09:00:36.030Z,21.23
2023-02-13T09:03:07.365Z,51.58
2023-02-13T09:05:39.203Z,32.17
2023-02-13T09:08:09.378Z,29.50
2023-02-13T09:10:40.251Z,37.95
2023-02-13T09:13:11.397Z,27.02
2023-02-13T09:15:42.254Z,38.05
2023-02-13T09:18:12.174Z,19.90
2023-02-13T09:20:41.368Z,14.75
2023-02-13T09:23:10.897Z,41.85
2023-02-13T09:25:40.230Z,38.50
2023-02-13T09:28:11.013Z,29.77
2023-02-13T09:30:41.028Z,51.88
2023-02-13T09:33:14.104Z,28.48
2023-02-13T09:35:46.091Z,27.00
2023-02-13T09:38:15.675Z,22.85
2023-02-13T09:40:56.438Z,22.15
2023-02-13T09:43:42.725Z,24.35
2023-02-13T09:46:22.481Z,28.42
2023-02-13T09:48:56.416Z,23.40
2023-02-13T09:51:27.302Z,22.38
2023-02-13T09:54:06.065Z,33.25
2023-02-13T09:57:01.617Z,32.65
2023-02-13T09:59:47.695Z,43.80
2023-02-13T10:02:44.509Z,24.38
2023-02-13T10:05:58.635Z,26.42
2023-02-13T10:09:07.664Z,20.25
2023-02-13T10:11:46.059Z,29.75
2023-02-13T10:14:32.800Z,33.88
2023-02-13T10:17:29.923Z,24.75
2023-02-13T10:20:04.804Z,26.77
2023-02-13T10:22:58.492Z,18.90
2023-02-13T10:25:31.258Z,46.78
2023-02-13T10:28:16.787Z,30.27
2023-02-13T10:31:04.225Z,27.52
2023-02-13T10:33:42.593Z,17.17
2023-02-13T10:36:11.830Z,50.05
2023-02-13T10:38:47.668Z,12.35
2023-02-13T10:41:52.728Z,15.27
2023-02-13T10:44:51.901Z,40.50
2023-02-13T10:47:47.018Z,65.05
2023-02-13T10:50:28.650Z,19.30
2023-02-13T10:53:16.351Z,29.27
2023-02-13T10:56:03.158Z,11.88
2023-02-13T10:58:48.636Z,18.17
2023-02-13T11:01:46.989Z,26.80
2023-02-13T11:04:19.840Z,60.83
2023-02-13T11:07:01.921Z,52.38
2023-02-13T11:09:39.314Z,17.65
2023-02-13T11:12:28.278Z,22.98
2023-02-13T11:15:09.259Z,23.63
2023-02-13T11:17:45.094Z,21.73
2023-02-13T11:20:40.615Z,15.77
2023-02-13T11:23:31.790Z,26.65
2023-02-13T11:26:36.777Z,24.60
2023-02-13T11:29:22.313Z,18.52
2023-02-13T11:32:04.902Z,13.38
2023-02-13T11:34:36.319Z,19.23
2023-02-13T11:37:14.735Z,32.47
2023-02-13T11:39:48.250Z,20.58
2023-02-13T11:42:37.245Z,33.45
2023-02-13T11:45:24.437Z,23.08
2023-02-13T11:47:56.204Z,33.55
2023-02-13T11:50:28.265Z,16.50
2023-02-13T11:53:31.475Z,21.58
2023-02-13T11:56:15.222Z,23.02
2023-02-13T11:58:45.178Z,44.80
2023-02-13T12:01:23.226Z,35.88
2023-02-13T12:04:23.161Z,35.70
2023-02-13T12:07:31.369Z,44.67
2023-02-13T12:10:20.098Z,36.55
2023-02-13T12:13:19.728Z,44.70
2023-02-13T12:15:52.185Z,47.17
2023-02-13T12:18:25.245Z,57.47
2023-02-13T12:21:05.237Z,55.38
2023-02-13T12:23:56.518Z,51.92
2023-02-13T12:26:51.296Z,47.17
2023-02-13T12:29:33.615Z,39.38
2023-02-13T12:32:30.421Z,49.63
2023-02-13T12:35:21.592Z,43.10
2023-02-13T12:38:05.070Z,64.45
2023-02-13T12:41:29.376Z,53.13
2023-02-13T12:44:09.015Z,67.47
2023-02-13T12:47:16.620Z,73.70
2023-02-13T12:50:03.158Z,57.88
2023-02-13T12:52:38.573Z,38.72
2023-02-13T12:55:37.868Z,38.60
2023-02-13T12:58:18.632Z,38.95
2023-02-13T13:01:15.622Z,53.13
2023-02-13T13:03:56.059Z,60.47
2023-02-13T13:06:53.597Z,59.78
2023-02-13T13:09:50.028Z,94.35
2023-02-13T13:12:36.280Z,72.55
2023-02-13T13:15:17.550Z,93.97
2023-02-13T13:18:26.587Z,98.57
2023-02-13T13:21:13.269Z,82.65
2023-02-13T13:23:48.420Z,94.68
2023-02-13T13:26:26.099Z,95.30
2023-02-13T13:28:58.273Z,109.60
2023-02-13T13:31:29.837Z,96.50
2023-02-13T13:34:03.931Z,88.17
2023-02-13T13:36:46.361Z,102.72
2023-02-13T13:39:27.692Z,124.20
2023-02-13T13:42:14.465Z,112.90
2023-02-13T13:45:19.415Z,105.15
2023-02-13T13:48:03.257Z,134.75
2023-02-13T13:50:37.456Z,109.05
2023-02-13T13:53:16.994Z,131.88
2023-02-13T13:55:49.287Z,124.00
2023-02-13T13:58:32.917Z,183.50
2023-02-13T14:01:17.964Z,146.40
2023-02-13T14:03:50.861Z,149.27
2023-02-13T14:06:23.778Z,141.50
2023-02-13T14:09:01.808Z,153.88
2023-02-13T14:11:36.996Z,107.82
2023-02-13T14:14:29.174Z,86.38
2023-02-13T14:17:02.817Z,78.68
2023-02-13T14:19:41.840Z,98.35
2023-02-13T14:22:28.886Z,94.18
2023-02-13T14:25:03.366Z,93.50
2023-02-13T14:27:38.839Z,82.53
2023-02-13T14:30:29.861Z,85.70
2023-02-13T14:33:21.912Z,86.90
2023-02-13T14:36:03.271Z,86.00
2023-02-13T14:38:33.105Z,96.38
2023-02-13T14:41:02.762Z,154.32
2023-02-13T14:43:52.517Z,264.23
2023-02-13T14:46:42.128Z,196.18
2023-02-13T14:49:36.883Z,259.85
2023-02-13T14:52:08.876Z,155.95
2023-02-13T14:54:50.330Z,115.13
2023-02-13T14:57:27.813Z,89.88
2023-02-13T15:00:19.065Z,115.18
2023-02-13T15:02:52.767Z,130.80
2023-02-13T15:05:23.100Z,104.80
2023-02-13T15:08:28.665Z,120.20
2023-02-13T15:10:59.194Z,129.13
2023-02-13T15:13:38.382Z,150.70
2023-02-13T15:16:12.359Z,219.27
2023-02-13T15:18:56.973Z,199.77
2023-02-13T15:21:34.246Z,174.57
2023-02-13T15:24:03.690Z,152.82
2023-02-13T15:26:33.048Z,150.27
2023-02-13T15:29:09.147Z,332.77
2023-02-13T15:31:40.467Z,344.52
2023-02-13T15:34:36.900Z,197.27
2023-02-13T15:37:06.303Z,130.75
2023-02-13T15:39:35.524Z,153.50
2023-02-13T15:42:05.149Z,181.10
2023-02-13T15:44:38.261Z,291.05
2023-02-13T15:47:29.763Z,228.77
2023-02-13T15:49:59.303Z,181.65
2023-02-13T15:52:39.433Z,196.43
2023-02-13T15:55:20.864Z,118.97
2023-02-13T15:57:51.402Z,206.20
2023-02-13T16:00:33.572Z,190.88
2023-02-13T16:03:05.646Z,166.63
2023-02-13T16:05:41.830Z,122.72
2023-02-13T16:08:31.468Z,130.82
2023-02-13T16:11:19.297Z,144.80
2023-02-13T16:14:20.159Z,121.15
2023-02-13T16:17:08.082Z,103.25
2023-02-13T16:19:53.748Z,137.27
2023-02-13T16:22:30.616Z,139.52
2023-02-13T16:25:06.324Z,108.20
2023-02-13T16:27:36.365Z,98.78
2023-02-13T16:30:08.523Z,92.85
2023-02-13T16:32:42.656Z,72.70
2023-02-13T16:35:39.699Z,78.57
2023-02-13T16:38:29.288Z,86.45
2023-02-13T16:41:08.446Z,82.65
2023-02-13T16:43:43.101Z,76.68
2023-02-13T16:46:31.349Z,76.85
2023-02-13T16:49:00.793Z,87.00
2023-02-13T16:51:48.315Z,77.15
2023-02-13T16:54:37.673Z,73.55
2023-02-13T16:57:14.552Z,73.82
2023-02-13T16:59:43.797Z,64.43
2023-02-13T17:02:15.858Z,78.30
2023-02-13T17:04:53.167Z,72.88
2023-02-13T17:07:28.402Z,68.68
2023-02-13T17:10:20.786Z,64.85
2023-02-13T17:12:52.554Z,70.90
2023-02-13T17:15:24.874Z,66.13
2023-02-13T17:17:57.401Z,73.65
2023-02-13T17:20:29.623Z,77.32
2023-02-13T17:23:01.297Z,83.85
2023-02-13T17:25:33.585Z,69.05
2023-02-13T17:28:28.848Z,75.00
2023-02-13T17:31:00.687Z,77.07
2023-02-13T17:33:37.772Z,71.50
2023-02-13T17:36:07.680Z,79.45
2023-02-13T17:38:36.579Z,70.68
2023-02-13T17:41:07.865Z,73.93
2023-02-13T17:43:37.085Z,77.82
2023-02-13T17:46:06.572Z,89.20
2023-02-13T17:48:35.790Z,74.55
2023-02-13T17:51:05.551Z,68.18
2023-02-13T17:53:35.364Z,65.05
2023-02-13T17:56:04.438Z,57.30
2023-02-13T17:58:33.798Z,66.90
2023-02-13T18:01:03.099Z,62.13
2023-02-13T18:03:32.600Z,62.53
2023-02-13T18:06:01.667Z,57.88
2023-02-13T18:08:30.950Z,59.33
2023-02-13T18:11:00.598Z,66.28
2023-02-13T18:13:29.877Z,70.88
2023-02-13T18:15:59.079Z,106.93
2023-02-13T18:18:28.599Z,94.28
2023-02-13T18:20:58.389Z,84.88
2023-02-13T18:23:28.100Z,89.78
2023-02-13T18:26:08.023Z,62.88
2023-02-13T18:28:37.543Z,74.00
2023-02-13T18:31:11.572Z,87.43
2023-02-13T18:33:40.996Z,96.47
2023-02-13T18:36:10.181Z,92.18
2023-02-13T18:38:39.496Z,68.45
2023-02-13T18:41:08.742Z,76.32
2023-02-13T18:43:38.223Z,102.32
2023-02-13T18:46:07.582Z,108.65
2023-02-13T18:48:36.788Z,148.98
2023-02-13T18:51:06.057Z,146.07
2023-02-13T18:53:35.314Z,158.38
2023-02-13T18:56:09.474Z,152.77
2023-02-13T18:58:38.918Z,146.40
2023-02-13T19:01:19.152Z,165.77
2023-02-13T19:03:50.811Z,165.27
2023-02-13T19:06:23.637Z,161.65
2023-02-13T19:08:53.280Z,133.23
2023-02-13T19:11:27.491Z,137.25
2023-02-13T19:14:01.443Z,128.50
2023-02-13T19:16:32.497Z,129.40
2023-02-13T19:19:04.497Z,119.65
2023-02-13T19:21:36.369Z,103.55
2023-02-13T19:24:08.655Z,103.37
2023-02-13T19:26:38.142Z,90.07
2023-02-13T19:29:07.349Z,95.03
2023-02-13T19:31:36.792Z,96.80
2023-02-13T19:34:06.744Z,89.25
2023-02-13T19:36:35.993Z,101.93
2023-02-13T19:39:09.904Z,91.47
2023-02-13T19:41:41.518Z,91.82
2023-02-13T19:44:11.218Z,120.25
2023-02-13T19:46:40.387Z,100.50
2023-02-13T19:49:10.907Z,102.10
2023-02-13T19:51:42.939Z,105.35
2023-02-13T19:54:13.823Z,104.82
2023-02-13T19:56:44.439Z,108.13
2023-02-13T19:59:14.414Z,117.68
2023-02-13T20:01:43.646Z,128.95
2023-02-13T20:04:13.832Z,161.52
2023-02-13T20:06:43.429Z,150.75
2023-02-13T20:09:14.950Z,181.93
2023-02-13T20:11:46.428Z,184.43
2023-02-13T20:14:16.262Z,171.65
2023-02-13T20:16:47.342Z,179.57
2023-02-13T20:19:16.589Z,171.70
2023-02-13T20:21:46.312Z,182.45
2023-02-13T20:24:15.578Z,187.30
2023-02-13T20:26:45.071Z,199.02
2023-02-13T20:29:14.400Z,276.80
2023-02-13T20:31:43.514Z,247.27
2023-02-13T20:34:13.069Z,287.13
2023-02-13T20:36:42.084Z,300.95
2023-02-13T20:39:11.697Z,275.58
2023-02-13T20:41:40.848Z,263.60
2023-02-13T20:44:13.638Z,261.05
2023-02-13T20:46:43.257Z,237.63
2023-02-13T20:49:13.363Z,249.85
2023-02-13T20:51:42.560Z,250.20
2023-02-13T20:54:11.829Z,238.18
2023-02-13T20:56:40.952Z,184.90
2023-02-13T20:59:10.026Z,214.52
2023-02-13T21:01:42.472Z,205.00
2023-02-13T21:06:43.921Z,228.13
2023-02-13T21:09:13.224Z,233.63
2023-02-13T21:11:44.785Z,226.57
2023-02-13T21:14:15.105Z,226.13
2023-02-13T21:16:44.844Z,227.35
2023-02-13T21:19:21.862Z,242.40
2023-02-13T21:21:51.279Z,227.50
2023-02-13T21:24:23.697Z,238.20
2023-02-13T21:26:54.085Z,263.30
2023-02-13T21:29:23.538Z,218.07
2023-02-13T21:31:52.528Z,227.40
2023-02-13T21:34:21.723Z,216.38
2023-02-13T21:36:50.628Z,202.98
2023-02-13T21:39:19.974Z,179.32
2023-02-13T21:41:49.833Z,158.35
2023-02-13T21:44:19.091Z,140.13
2023-02-13T21:46:48.357Z,159.95
2023-02-13T21:49:19.772Z,149.85
2023-02-13T21:51:49.261Z,148.40
2023-02-13T21:54:18.230Z,152.75
2023-02-13T21:56:47.988Z,152.88
2023-02-13T21:59:18.662Z,141.30
2023-02-13T22:01:51.217Z,161.27
2023-02-13T22:04:20.787Z,171.73
2023-02-13T22:06:52.330Z,149.27
2023-02-13T22:09:23.111Z,140.23
2023-02-13T22:11:55.757Z,148.90
2023-02-13T22:14:24.872Z,139.57
2023-02-13T22:16:54.147Z,156.48
2023-02-13T22:19:23.452Z,121.05
2023-02-13T22:21:52.301Z,130.30
2023-02-13T22:24:21.294Z,116.05
2023-02-13T22:26:50.467Z,124.13
2023-02-13T22:29:22.535Z,128.93
2023-02-13T22:31:51.819Z,125.93
2023-02-13T22:34:21.320Z,115.45
2023-02-13T22:36:50.641Z,124.88
2023-02-13T22:39:19.562Z,99.47
2023-02-13T22:41:48.845Z,118.20
2023-02-13T22:44:17.893Z,90.85
2023-02-13T22:46:47.087Z,94.65
2023-02-13T22:49:16.033Z,99.72
2023-02-13T22:51:45.057Z,102.20
2023-02-13T22:54:14.126Z,98.93
2023-02-13T22:56:43.229Z,109.57
2023-02-13T22:59:13.622Z,105.97
2023-02-13T23:01:43.056Z,97.13
2023-02-13T23:04:13.038Z,113.32
2023-02-13T23:06:42.586Z,106.32
2023-02-13T23:09:11.643Z,114.82
2023-02-13T23:11:59.300Z,116.55
2023-02-13T23:14:28.994Z,133.63
2023-02-13T23:17:16.211Z,126.18
2023-02-13T23:19:46.573Z,128.43
2023-02-13T23:22:17.226Z,142.40
2023-02-13T23:24:46.612Z,137.90
2023-02-13T23:27:17.026Z,138.55
2023-02-13T23:29:46.606Z,141.45
2023-02-13T23:32:15.710Z,157.55
2023-02-13T23:34:44.989Z,141.77
2023-02-13T23:37:13.742Z,152.65
2023-02-13T23:39:43.054Z,139.50
2023-02-13T23:42:12.605Z,139.48
2023-02-13T23:44:41.688Z,167.05
2023-02-13T23:47:10.804Z,139.95
2023-02-13T23:49:39.637Z,166.32
2023-02-13T23:52:08.902Z,157.10
2023-02-13T23:54:38.956Z,163.55
2023-02-13T23:57:08.696Z,149.50
2023-02-13T23:59:38.987Z,171.60
